CheckWX is a tool to help pilots better visualize weather data.  It is not intended as a substitute for an official pre-flight weather briefing.

03:38:35 UTC

KLLQ TAF
Monticello Municipal / Ellis Field Airport
Monticello, Arkansas, USA
KLLQ 282320Z 2900/2924 29009KT P6SM SKC FM290200 VRB06KT P6SM SKC

Feb-29@
00:00 UTC

Feb-29 @ 00:00 UTC

Feb-29@
02:00 UTC

Feb-29 @ 02:00 UTC

KLLQ 282320Z 2900/2924 29009KT P6SM SKC

Expired

Wind
  • 290° at 9 KTS
Cloud Levels
  • Clear skies

Feb-29@
02:00 UTC

Feb-29 @ 02:00 UTC

Mar-1@
00:00 UTC

Mar-1 @ 00:00 UTC

FM290200 VRB06KT P6SM SKC

From

From Standard forecast or significant change

Wind
  • Variable at 6 KTS
Cloud Levels
  • Clear skies